Kassel Calden, Germany

11:56 PM CEST on August 25, 2016 (GMT +0200)
Calden | | Change Station

Elev 909 ft 51.41 °N, 9.38 °E | Updated 2 hours ago

Clear
Clear
79 °F
Feels Like 79 °F
N
1
Wind Variable Wind from Variable

Today
High -- | Low -- °F
--% Chance of Precip.
Yesterday
High -- | Low -- °F
Precip. -- in
Pressure 30.04 in
Visibility -9999.0 miles
Clouds
Dew Point 52 °F
Humidity 39%
Rainfall 0.00 in
Snow Depth Not available.
6:24 AM 8:23 PM
Last Quarter, 41% visible
METAR EDVK 251920Z VRB01KT CAVOK 26/11 Q1017
Pressure 30.04 in
Visibility -9999.0 miles
Clouds
Dew Point 52 °F
Humidity 39%
Rainfall 0.00 in
Snow Depth Not available.
6:24 AM 8:23 PM
Last Quarter, 41% visible
METAR EDVK 251920Z VRB01KT CAVOK 26/11 Q1017

10-Day Weather Forecast

×

Almanac

Astronomy

Aug. 25, 2016 Rise Set
Actual Time
Civil Twilight
Nautical Twilight
Astronomical Twilight
Moon
Length of Visible Light
Length of Day
Tomorrow will be .
, % of the Moon is Illuminated

Today's Extremes

Country Highs Country Lows

Community

WunderPhotos

Upload Photos

1,934,947 photos uploaded!

WunderBlog® & News

Nearby

Air Quality

  Air Quality AQ Index Pollutant
Not available.

Snow Depth

Station Depth Elevation

Earthquake Activity

City Distance Mag. Time & Date
Minimum magnitude displayed is 2.5.

Coastal Water Temperatures

Place Temperature

Stations

Nearby Weather Stations

Station Location Temp. Windchill Dew Point Humidity Wind Precip. Elev Updated Type